Meteorología y climatología de Navarra
Datos de la estación - Meteo Navarra

Estación de Erremendia (Salazar) GN

Altitud 1047 m.


Datos desde el 14/08/2019 hasta el 15/08/2019 en horario solar
Los datos son PROVISIONALES

Anterior Página 1 de 1 Siguiente Descargar: Formato para Excel 2000 o superior   Formato csv   Formato para OpenOffice Calc
Fecha Temperatura Humedad relativa Radiación global Insolación Precipitación Vel. viento 10 m Vel. viento 10 m Dir. viento 10 m
ºC % W/m² s l/m² m/s km/h º
14/08/2019 0:00 4.6 95 0.0 0 0.0 0.6 2.0 71
14/08/2019 0:10 4.3 95 0.0 0 0.0 1.0 3.5 73
14/08/2019 0:20 4.2 96 0.0 0 0.0 1.0 3.7 73
14/08/2019 0:30 4.2 96 0.0 0 0.0 0.9 3.1 70
14/08/2019 0:40 3.7 95 0.0 0 0.0 0.8 2.7 74
14/08/2019 0:50 3.3 95 0.0 0 0.0 0.6 2.3 80
14/08/2019 1:00 3.0 96 0.0 0 0.0 0.4 1.4 67
14/08/2019 1:10 2.7 95 0.0 0 0.0 0.1 0.3 51
14/08/2019 1:20 2.6 96 0.0 0 0.0 0.2 0.6 51
14/08/2019 1:30 2.7 97 0.0 0 0.0 0.4 1.5 75
14/08/2019 1:40 2.8 97 0.0 0 0.0 0.5 1.7 71
14/08/2019 1:50 3.1 97 0.0 0 0.0 0.8 3.0 64
14/08/2019 2:00 3.5 97 0.0 0 0.0 1.1 4.0 73
14/08/2019 2:10 3.5 97 0.0 0 0.0 1.0 3.6 79
14/08/2019 2:20 3.0 95 0.0 0 0.0 0.5 1.7 81
14/08/2019 2:30 2.6 96 0.0 0 0.0 0.4 1.3 67
14/08/2019 2:40 2.6 96 0.0 0 0.0 0.7 2.4 71
14/08/2019 2:50 2.3 96 0.0 0 0.0 0.5 1.9 65
14/08/2019 3:00 2.1 96 0.0 0 0.0 0.8 2.8 77
14/08/2019 3:10 2.1 96 0.0 0 0.0 0.6 2.1 98
14/08/2019 3:20 2.0 96 0.0 0 0.0 0.3 1.1 113
14/08/2019 3:30 1.8 96 0.0 0 0.0 0.6 2.0 88
14/08/2019 3:40 1.9 97 0.0 0 0.0 0.9 3.2 66
14/08/2019 3:50 2.0 97 0.0 0 0.0 0.7 2.6 87
14/08/2019 4:00 1.8 97 0.0 0 0.0 0.4 1.6 95
14/08/2019 4:10 1.6 97 0.0 0 0.0 0.5 1.9 80
14/08/2019 4:20 1.6 97 0.0 0 0.0 0.5 1.8 76
14/08/2019 4:30 1.7 97 0.0 0 0.0 0.3 1.2 65
14/08/2019 4:40 1.7 97 0.0 0 0.0 0.5 1.9 74
14/08/2019 4:50 1.8 97 0.0 0 0.0 1.0 3.5 71
14/08/2019 5:00 1.7 97 0.0 0 0.0 0.7 2.4 67
14/08/2019 5:10 1.6 97 0.0 0 0.0 0.5 1.8 95
14/08/2019 5:20 1.6 97 0.0 0 0.0 0.5 1.9 80
14/08/2019 5:30 2.1 97 5.7 0 0.0 0.9 3.1 83
14/08/2019 5:40 2.3 97 45.5 490 0.0 0.4 1.5 123
14/08/2019 5:50 2.6 97 83.6 600 0.0 0.8 3.0 80
14/08/2019 6:00 4.3 98 117.6 600 0.0 0.4 1.4 91
14/08/2019 6:10 5.5 98 134.9 600 0.0 0.1 0.4 103
14/08/2019 6:20 6.5 95 151.5 600 0.0 0.1 0.5 25
14/08/2019 6:30 7.9 92 180.0 600 0.0 0.2 0.7 30
14/08/2019 6:40 9.4 88 200.1 600 0.0 0.0 0.1 270
14/08/2019 6:50 10.5 82 243.9 600 0.0 0.5 1.7 211
14/08/2019 7:00 11.3 76 275.6 600 0.0 0.3 1.2 25
14/08/2019 7:10 13.2 69 309.3 600 0.0 1.0 3.6 68
14/08/2019 7:20 15.0 64 342.8 600 0.0 0.9 3.1 69
14/08/2019 7:30 15.6 64 372.5 600 0.0 0.6 2.1 162
14/08/2019 7:40 16.3 57 404.7 600 0.0 0.2 0.6 143
14/08/2019 7:50 17.2 50 437.4 600 0.0 0.6 2.0 165
14/08/2019 8:00 17.9 42 472.8 600 0.0 0.2 0.7 174
14/08/2019 8:10 18.2 38 506.3 600 0.0 0.9 3.1 251
14/08/2019 8:20 18.2 39 515.0 572 0.0 1.2 4.4 270
14/08/2019 8:30 18.3 42 572.0 600 0.0 1.5 5.3 289
14/08/2019 8:40 18.4 40 603.1 600 0.0 2.0 7.3 326
14/08/2019 8:50 18.7 39 629.0 600 0.0 1.9 6.7 312
14/08/2019 9:00 18.8 35 657.1 600 0.0 1.7 6.2 314
14/08/2019 9:10 18.9 33 682.3 600 0.0 1.8 6.4 325
14/08/2019 9:20 19.7 29 706.3 600 0.0 1.3 4.6 294
14/08/2019 9:30 19.9 28 730.4 600 0.0 1.6 5.6 301
14/08/2019 9:40 20.1 25 754.1 600 0.0 1.4 5.0 306
14/08/2019 9:50 20.3 27 778.6 600 0.0 2.1 7.4 321
14/08/2019 10:00 20.1 32 798.2 600 0.0 2.1 7.7 309
14/08/2019 10:10 20.0 33 818.0 600 0.0 1.6 5.7 344
14/08/2019 10:20 20.5 34 836.0 600 0.0 2.6 9.2 316
14/08/2019 10:30 20.3 35 853.0 600 0.0 2.4 8.6 329
14/08/2019 10:40 20.6 37 870.0 600 0.0 3.0 10.6 315
14/08/2019 10:50 20.9 38 892.0 600 0.0 2.5 9.1 293
14/08/2019 11:00 21.0 37 905.0 600 0.0 2.8 10.2 313
14/08/2019 11:10 20.9 37 905.0 600 0.0 2.5 9.0 315
14/08/2019 11:20 21.3 37 913.0 600 0.0 2.0 7.2 289
14/08/2019 11:30 21.5 38 918.0 600 0.0 2.2 8.0 313
14/08/2019 11:40 21.8 37 914.0 600 0.0 2.0 7.0 307
14/08/2019 11:50 21.7 38 920.0 600 0.0 2.3 8.3 315
14/08/2019 12:00 21.9 38 919.0 600 0.0 1.9 6.7 302
14/08/2019 12:10 21.9 38 925.0 600 0.0 2.2 7.9 298
14/08/2019 12:20 22.1 39 926.0 600 0.0 1.6 5.8 327
14/08/2019 12:30 22.5 39 924.0 600 0.0 2.3 8.4 317
14/08/2019 12:40 22.3 40 921.0 600 0.0 2.5 9.1 311
14/08/2019 12:50 22.1 41 917.0 600 0.0 2.8 10.2 312
14/08/2019 13:00 22.3 42 911.0 600 0.0 3.2 11.6 306
14/08/2019 13:10 22.1 42 904.0 600 0.0 3.3 11.7 314
14/08/2019 13:20 21.8 43 894.0 600 0.0 3.5 12.4 317
14/08/2019 13:30 21.8 44 884.0 600 0.0 3.0 10.8 301
14/08/2019 13:40 22.0 45 871.0 600 0.0 2.6 9.4 303
14/08/2019 13:50 22.1 46 856.0 600 0.0 2.7 9.9 316
14/08/2019 14:00 22.1 45 841.0 600 0.0 3.0 10.7 303
14/08/2019 14:10 21.7 45 824.0 600 0.0 3.4 12.4 320
14/08/2019 14:20 21.7 46 805.0 600 0.0 3.3 11.8 314
14/08/2019 14:30 22.2 45 785.0 600 0.0 2.9 10.3 269
14/08/2019 14:40 22.2 46 762.0 600 0.0 2.1 7.6 281
14/08/2019 14:50 22.1 47 738.4 600 0.0 2.1 7.7 307
14/08/2019 15:00 22.4 48 713.0 600 0.0 3.3 11.7 304
14/08/2019 15:10 21.8 49 690.6 600 0.0 2.7 9.8 314
14/08/2019 15:20 21.7 49 666.3 600 0.0 2.7 9.9 300
14/08/2019 15:30 21.8 50 637.5 600 0.0 2.7 9.8 302
14/08/2019 15:40 21.6 52 607.2 600 0.0 2.7 9.8 338
14/08/2019 15:50 21.0 54 576.9 600 0.0 2.7 9.8 10
14/08/2019 16:00 20.7 54 546.0 600 0.0 3.8 13.6 357
14/08/2019 16:10 20.4 55 513.4 600 0.0 2.9 10.4 359
14/08/2019 16:20 20.1 57 479.8 600 0.0 3.2 11.4 338
14/08/2019 16:30 19.8 58 447.4 600 0.0 3.1 11.2 347
14/08/2019 16:40 19.7 58 415.3 600 0.0 3.0 10.7 353
14/08/2019 16:50 20.0 56 371.0 600 0.0 2.6 9.2 348
14/08/2019 17:00 19.9 56 335.8 600 0.0 2.6 9.2 346
14/08/2019 17:10 19.6 56 308.0 600 0.0 2.1 7.6 344
14/08/2019 17:20 19.7 57 300.7 600 0.0 1.7 6.0 332
14/08/2019 17:30 19.7 56 264.7 600 0.0 1.9 6.8 330
14/08/2019 17:40 19.4 57 231.4 600 0.0 2.0 7.3 324
14/08/2019 17:50 19.0 58 141.8 342 0.0 1.5 5.4 319
14/08/2019 18:00 18.3 60 53.5 30 0.0 1.0 3.7 347
14/08/2019 18:10 17.9 61 114.2 494 0.0 1.2 4.2 2
14/08/2019 18:20 17.8 61 38.3 34 0.0 1.9 6.8 353
14/08/2019 18:30 17.4 62 58.1 360 0.0 1.3 4.8 17
14/08/2019 18:40 17.3 63 40.9 262 0.0 1.1 3.9 89
14/08/2019 18:50 16.8 65 11.6 0 0.0 1.1 4.1 255
14/08/2019 19:00 16.5 67 0.0 0 0.0 1.2 4.5 57
14/08/2019 19:10 15.9 70 0.0 0 0.0 0.9 3.3 31
14/08/2019 19:20 15.4 72 0.0 0 0.0 0.9 3.2 8
14/08/2019 19:30 14.9 75 0.0 0 0.0 1.0 3.5 54
14/08/2019 19:40 14.9 76 0.0 0 0.0 1.0 3.7 57
14/08/2019 19:50 15.0 77 0.0 0 0.0 0.3 0.9 52
14/08/2019 20:00 15.0 79 0.0 0 0.0 0.8 3.0 50
14/08/2019 20:10 15.0 79 0.0 0 0.0 0.9 3.2 22
14/08/2019 20:20 15.4 80 0.0 0 0.0 0.8 2.8 4
14/08/2019 20:30 15.2 79 0.0 0 0.0 0.6 2.3 272
14/08/2019 20:40 14.8 80 0.0 0 0.0 0.4 1.4 279
14/08/2019 20:50 15.2 82 0.0 0 0.0 0.9 3.1 56
14/08/2019 21:00 15.6 82 0.0 0 0.0 0.7 2.6 192
14/08/2019 21:10 15.6 82 0.0 0 0.0 0.6 2.2 236
14/08/2019 21:20 15.5 83 0.0 0 0.0 0.8 2.8 145
14/08/2019 21:30 15.6 84 0.0 0 0.0 0.7 2.6 98
14/08/2019 21:40 15.5 85 0.0 0 0.0 0.5 1.7 70
14/08/2019 21:50 15.5 85 0.0 0 0.0 0.2 0.8 33
14/08/2019 22:00 15.2 85 0.0 0 0.0 0.8 3.0 234
14/08/2019 22:10 15.2 86 0.0 0 0.0 1.2 4.2 195
14/08/2019 22:20 15.1 87 0.0 0 0.0 0.7 2.6 273
14/08/2019 22:30 14.8 87 0.0 0 0.0 0.8 2.7 247
14/08/2019 22:40 14.6 89 0.0 0 0.0 0.5 1.9 270
14/08/2019 22:50 14.5 89 0.0 0 0.0 0.3 1.1 340
14/08/2019 23:00 14.1 91 0.0 0 0.0 0.5 1.7 163
14/08/2019 23:10 14.2 91 0.0 0 0.0 0.2 0.8 259
14/08/2019 23:20 13.8 90 0.0 0 0.0 0.5 1.7 296
14/08/2019 23:30 13.7 92 0.0 0 0.0 0.9 3.3 204
14/08/2019 23:40 13.9 92 0.0 0 0.0 0.7 2.6 225
14/08/2019 23:50 13.8 92 0.0 0 0.0 0.9 3.2 244
Anterior Página 1 de 1 Siguiente

NOTA: Tipo de datos según el color:
   - Valores diarios o 10 minutos correctos
   - Valores diarios calculados a partir de un número de datos 10 minutos menor que 144 y mayor que 120, o de un número de datos semihorarios menor que 48 y mayor que 40 (caso de las estaciones de Riegos de Navarra y del MARM)
   - Valores diez minutos estimados


Contacto        Enlaces        Aviso legal